createdAt,value
2023-02-28T00:00:36.725Z,5.87
2023-02-28T00:03:03.240Z,6.20
2023-02-28T00:05:30.174Z,4.83
2023-02-28T00:07:56.696Z,6.83
2023-02-28T00:10:27.430Z,4.33
2023-02-28T00:12:57.701Z,6.17
2023-02-28T00:15:24.702Z,4.10
2023-02-28T00:17:51.410Z,5.80
2023-02-28T00:20:18.034Z,5.83
2023-02-28T00:22:47.030Z,5.23
2023-02-28T00:25:17.206Z,5.47
2023-02-28T00:27:43.661Z,5.93
2023-02-28T00:30:13.097Z,5.43
2023-02-28T00:32:39.599Z,4.53
2023-02-28T00:35:06.770Z,4.40
2023-02-28T00:37:33.322Z,4.97
2023-02-28T00:39:59.789Z,6.07
2023-02-28T00:42:26.541Z,5.07
2023-02-28T00:44:53.951Z,5.30
2023-02-28T00:47:20.423Z,4.87
2023-02-28T00:49:47.078Z,7.73
2023-02-28T00:52:13.498Z,7.13
2023-02-28T00:54:39.963Z,5.80
2023-02-28T00:57:06.494Z,5.20
2023-02-28T00:59:32.980Z,5.27
2023-02-28T01:01:59.557Z,5.00
2023-02-28T01:04:26.072Z,6.23
2023-02-28T01:06:52.493Z,5.50
2023-02-28T01:09:19.842Z,4.03
2023-02-28T01:11:46.402Z,4.47
2023-02-28T01:14:15.472Z,3.70
2023-02-28T01:16:42.352Z,5.83
2023-02-28T01:19:09.091Z,3.20
2023-02-28T01:21:36.618Z,4.43
2023-02-28T01:24:04.748Z,5.37
2023-02-28T01:26:31.611Z,4.07
2023-02-28T01:28:58.225Z,5.17
2023-02-28T01:31:24.873Z,3.63
2023-02-28T01:33:51.379Z,4.73
2023-02-28T01:36:23.747Z,5.00
2023-02-28T01:38:50.512Z,4.30
2023-02-28T01:41:26.260Z,3.40
2023-02-28T01:43:59.233Z,5.20
2023-02-28T01:46:25.785Z,4.57
2023-02-28T01:49:18.552Z,4.37
2023-02-28T01:51:55.552Z,4.60
2023-02-28T01:54:27.556Z,5.93
2023-02-28T01:56:58.820Z,4.63
2023-02-28T01:59:52.613Z,6.47
2023-02-28T02:02:21.806Z,3.87
2023-02-28T02:05:09.964Z,6.07
2023-02-28T02:07:39.239Z,5.17
2023-02-28T02:10:17.563Z,4.07
2023-02-28T02:13:01.341Z,4.13
2023-02-28T02:15:35.645Z,3.37
2023-02-28T02:18:08.209Z,4.10
2023-02-28T02:21:11.463Z,5.10
2023-02-28T02:24:15.924Z,4.67
2023-02-28T02:26:51.314Z,3.03
2023-02-28T02:29:38.936Z,5.20
2023-02-28T02:32:19.395Z,5.07
2023-02-28T02:34:57.905Z,4.50
2023-02-28T02:37:37.966Z,3.83
2023-02-28T02:40:20.781Z,4.77
2023-02-28T02:43:03.040Z,4.47
2023-02-28T02:45:38.481Z,3.80
2023-02-28T02:48:08.113Z,4.63
2023-02-28T02:50:38.837Z,4.80
2023-02-28T02:53:06.782Z,5.10
2023-02-28T02:55:35.875Z,4.27
2023-02-28T02:58:05.009Z,3.63
2023-02-28T03:00:35.272Z,5.50
2023-02-28T03:03:02.696Z,4.07
2023-02-28T03:05:49.681Z,4.93
2023-02-28T03:08:16.411Z,4.53
2023-02-28T03:10:44.878Z,4.40
2023-02-28T03:13:46.240Z,5.80
2023-02-28T03:16:28.225Z,3.27
2023-02-28T03:19:14.353Z,3.97
2023-02-28T03:22:13.634Z,3.30
2023-02-28T03:24:43.254Z,3.60
2023-02-28T03:27:13.723Z,3.20
2023-02-28T03:29:47.464Z,2.80
2023-02-28T03:32:28.048Z,3.73
2023-02-28T03:35:22.855Z,3.73
2023-02-28T03:38:04.649Z,3.20
2023-02-28T03:40:33.698Z,3.83
2023-02-28T03:43:04.115Z,2.97
2023-02-28T03:45:32.230Z,3.37
2023-02-28T03:48:06.333Z,2.90
2023-02-28T03:50:37.741Z,2.40
2023-02-28T03:53:09.013Z,3.23
2023-02-28T03:55:40.135Z,2.90
2023-02-28T03:58:33.390Z,3.57
2023-02-28T04:01:13.673Z,3.80
2023-02-28T04:03:40.411Z,3.50
2023-02-28T04:08:40.847Z,2.90
2023-02-28T04:11:43.453Z,3.80
2023-02-28T04:14:11.390Z,4.00
2023-02-28T04:16:40.247Z,7.50
2023-02-28T04:19:08.609Z,4.60
2023-02-28T04:21:40.325Z,2.60
2023-02-28T04:24:09.079Z,4.97
2023-02-28T04:26:37.306Z,3.27
2023-02-28T04:29:05.843Z,3.27
2023-02-28T04:31:33.134Z,3.73
2023-02-28T04:34:00.061Z,4.70
2023-02-28T04:36:27.032Z,3.93
2023-02-28T04:38:53.594Z,5.73
2023-02-28T04:41:20.471Z,4.23
2023-02-28T04:43:46.917Z,3.10
2023-02-28T04:46:13.464Z,3.90
2023-02-28T04:48:40.909Z,4.47
2023-02-28T04:51:09.794Z,3.67
2023-02-28T04:53:37.781Z,2.93
2023-02-28T04:56:04.590Z,3.63
2023-02-28T04:58:31.095Z,4.67
2023-02-28T05:01:05.916Z,4.60
2023-02-28T05:03:32.440Z,4.30
2023-02-28T05:05:59.012Z,4.90
2023-02-28T05:08:26.245Z,7.80
2023-02-28T05:10:52.797Z,6.77
2023-02-28T05:13:19.415Z,6.00
2023-02-28T05:15:46.048Z,5.70
2023-02-28T05:18:12.687Z,7.67
2023-02-28T05:20:39.303Z,9.20
2023-02-28T05:23:05.790Z,10.93
2023-02-28T05:25:32.278Z,8.10
2023-02-28T05:27:58.831Z,7.10
2023-02-28T05:30:25.342Z,7.47
2023-02-28T05:32:52.627Z,7.17
2023-02-28T05:35:19.386Z,8.73
2023-02-28T05:37:45.853Z,5.40
2023-02-28T05:40:12.755Z,6.47
2023-02-28T05:42:39.391Z,9.33
2023-02-28T05:45:07.909Z,8.43
2023-02-28T05:47:34.480Z,8.50
2023-02-28T05:50:01.443Z,7.57
2023-02-28T05:52:28.712Z,5.93
2023-02-28T05:54:55.191Z,5.43
2023-02-28T05:57:24.727Z,3.47
2023-02-28T05:59:51.829Z,3.97
2023-02-28T06:02:19.030Z,5.03
2023-02-28T06:04:46.125Z,4.23
2023-02-28T06:07:12.913Z,3.87
2023-02-28T06:09:40.401Z,4.27
2023-02-28T06:12:08.276Z,5.73
2023-02-28T06:14:35.561Z,3.13
2023-02-28T06:17:02.253Z,2.80
2023-02-28T06:19:29.645Z,4.17
2023-02-28T06:21:57.824Z,3.50
2023-02-28T06:24:25.652Z,4.23
2023-02-28T06:26:52.170Z,4.13
2023-02-28T06:29:19.494Z,4.33
2023-02-28T06:31:47.030Z,3.53
2023-02-28T06:34:14.091Z,4.00
2023-02-28T06:36:41.889Z,4.27
2023-02-28T06:39:09.140Z,4.27
2023-02-28T06:41:53.579Z,4.27
2023-02-28T06:44:21.021Z,3.43
2023-02-28T06:46:48.009Z,3.53
2023-02-28T06:49:14.787Z,4.63
2023-02-28T06:51:42.941Z,4.57
2023-02-28T06:54:10.642Z,4.60
2023-02-28T06:56:37.270Z,3.03
2023-02-28T06:59:04.518Z,5.83
2023-02-28T07:01:32.939Z,3.37
2023-02-28T07:04:01.097Z,3.00
2023-02-28T07:06:28.229Z,3.63
2023-02-28T07:08:55.170Z,3.83
2023-02-28T07:11:23.593Z,4.43
2023-02-28T07:13:51.963Z,4.93
2023-02-28T07:16:18.929Z,3.60
2023-02-28T07:18:45.559Z,4.33
2023-02-28T07:21:12.374Z,6.00
2023-02-28T07:23:39.632Z,2.87
2023-02-28T07:26:07.692Z,6.27
2023-02-28T07:28:34.205Z,4.50
2023-02-28T07:31:08.190Z,3.80
2023-02-28T07:33:35.165Z,3.77
2023-02-28T07:36:03.744Z,5.30
2023-02-28T07:38:30.290Z,4.13
2023-02-28T07:40:56.775Z,6.57
2023-02-28T07:43:23.235Z,3.80
2023-02-28T07:45:49.731Z,3.03
2023-02-28T07:48:16.537Z,3.73
2023-02-28T07:50:43.014Z,5.00
2023-02-28T07:53:09.518Z,6.83
2023-02-28T07:55:36.097Z,6.07
2023-02-28T07:58:02.568Z,6.13
2023-02-28T08:00:30.102Z,4.53
2023-02-28T08:02:56.663Z,7.37
2023-02-28T08:05:23.139Z,4.40
2023-02-28T08:07:52.609Z,4.23
2023-02-28T08:10:19.228Z,6.10
2023-02-28T08:12:45.707Z,5.27
2023-02-28T08:15:12.203Z,6.00
2023-02-28T08:17:38.802Z,8.07
2023-02-28T08:20:05.670Z,5.03
2023-02-28T08:22:32.143Z,4.83
2023-02-28T08:24:58.607Z,5.73
2023-02-28T08:27:25.164Z,6.37
2023-02-28T08:29:51.692Z,4.73
2023-02-28T08:32:29.350Z,5.63
2023-02-28T08:34:56.498Z,4.20
2023-02-28T08:37:22.976Z,6.27
2023-02-28T08:39:49.453Z,4.93
2023-02-28T08:42:15.910Z,5.27
2023-02-28T08:44:42.429Z,6.13
2023-02-28T08:47:09.054Z,3.33
2023-02-28T08:49:35.525Z,4.37
2023-02-28T08:52:02.047Z,4.43
2023-02-28T08:54:31.695Z,5.20
2023-02-28T08:56:58.362Z,5.07
2023-02-28T08:59:24.873Z,4.37
2023-02-28T09:01:51.464Z,4.60
2023-02-28T09:04:20.064Z,7.50
2023-02-28T09:06:47.394Z,5.00
2023-02-28T09:09:13.941Z,4.80
2023-02-28T09:11:40.562Z,6.20
2023-02-28T09:14:07.083Z,2.93
2023-02-28T09:16:35.995Z,3.43
2023-02-28T09:19:03.221Z,2.83
2023-02-28T09:21:30.100Z,2.60
2023-02-28T09:23:56.909Z,2.57
2023-02-28T09:26:25.887Z,2.70
2023-02-28T09:28:54.762Z,2.87
2023-02-28T09:31:25.227Z,3.17
2023-02-28T09:33:54.490Z,3.50
2023-02-28T09:36:23.229Z,2.80
2023-02-28T09:38:52.002Z,1.57
2023-02-28T09:41:21.146Z,3.63
2023-02-28T09:43:51.510Z,1.87
2023-02-28T09:46:38.676Z,1.90
2023-02-28T09:49:13.909Z,2.17
2023-02-28T09:51:44.946Z,1.70
2023-02-28T09:54:20.190Z,1.90
2023-02-28T09:56:55.168Z,3.53
2023-02-28T09:59:41.674Z,2.40
2023-02-28T10:02:17.172Z,2.70
2023-02-28T10:04:52.755Z,1.83
2023-02-28T10:07:56.738Z,1.80
2023-02-28T10:10:27.891Z,2.27
2023-02-28T10:12:56.363Z,2.70
2023-02-28T10:15:25.719Z,1.83
2023-02-28T10:18:08.379Z,3.40
2023-02-28T10:20:38.564Z,2.30
2023-02-28T10:23:11.889Z,1.90
2023-02-28T10:25:39.631Z,3.40
2023-02-28T10:28:16.870Z,2.40
2023-02-28T10:30:52.316Z,2.73
2023-02-28T10:33:24.230Z,2.17
2023-02-28T10:35:51.695Z,2.60
2023-02-28T10:38:39.339Z,3.53
2023-02-28T10:41:18.348Z,1.80
2023-02-28T10:43:48.308Z,3.30
2023-02-28T10:46:27.204Z,2.23
2023-02-28T10:49:04.481Z,3.50
2023-02-28T10:51:41.546Z,1.77
2023-02-28T10:54:17.132Z,3.20
2023-02-28T10:56:43.590Z,1.93
2023-02-28T10:59:15.955Z,1.60
2023-02-28T11:01:46.109Z,1.90
2023-02-28T11:04:34.073Z,1.30
2023-02-28T11:07:04.031Z,2.27
2023-02-28T11:09:39.782Z,3.03
2023-02-28T11:12:22.004Z,1.90
2023-02-28T11:14:51.227Z,2.60
2023-02-28T11:17:28.327Z,2.13
2023-02-28T11:19:58.575Z,3.40
2023-02-28T11:22:29.816Z,1.87
2023-02-28T11:24:59.384Z,2.00
2023-02-28T11:27:50.535Z,2.23
2023-02-28T11:30:43.186Z,1.67
2023-02-28T11:33:30.777Z,3.27
2023-02-28T11:36:05.473Z,3.03
2023-02-28T11:38:35.394Z,2.40
2023-02-28T11:41:32.876Z,3.17
2023-02-28T11:44:06.140Z,1.80
2023-02-28T11:47:05.421Z,2.17
2023-02-28T11:49:37.040Z,2.80
2023-02-28T11:52:09.843Z,1.87
2023-02-28T11:55:15.646Z,2.27
2023-02-28T11:58:13.591Z,2.03
2023-02-28T12:00:48.444Z,2.20
2023-02-28T12:03:21.152Z,2.27
2023-02-28T12:05:52.878Z,1.77
2023-02-28T12:08:47.288Z,2.77
2023-02-28T12:11:35.541Z,2.70
2023-02-28T12:14:15.114Z,2.73
2023-02-28T12:17:00.409Z,1.50
2023-02-28T12:19:31.173Z,2.90
2023-02-28T12:22:36.939Z,2.03
2023-02-28T12:25:23.300Z,3.00
2023-02-28T12:27:51.370Z,2.90
2023-02-28T12:30:25.317Z,2.33
2023-02-28T12:33:05.418Z,2.80
2023-02-28T12:35:39.146Z,2.77
2023-02-28T12:38:18.696Z,2.00
2023-02-28T12:40:50.124Z,3.30
2023-02-28T12:43:18.550Z,1.87
2023-02-28T12:45:54.596Z,3.73
2023-02-28T12:48:43.590Z,1.77
2023-02-28T12:51:10.489Z,2.87
2023-02-28T12:54:04.722Z,2.30
2023-02-28T12:56:46.126Z,3.57
2023-02-28T12:59:19.506Z,2.67
2023-02-28T13:02:11.707Z,1.93
2023-02-28T13:04:45.529Z,2.57
2023-02-28T13:07:26.141Z,2.23
2023-02-28T13:09:54.997Z,3.70
2023-02-28T13:12:23.783Z,2.13
2023-02-28T13:14:51.231Z,3.10
2023-02-28T13:17:20.757Z,2.67
2023-02-28T13:20:17.500Z,1.67
2023-02-28T13:22:46.229Z,2.03
2023-02-28T13:25:34.508Z,2.67
2023-02-28T13:28:05.282Z,3.00
2023-02-28T13:31:05.246Z,3.30
2023-02-28T13:33:34.217Z,2.13
2023-02-28T13:36:08.447Z,2.67
2023-02-28T13:38:43.279Z,4.07
2023-02-28T13:41:31.550Z,2.93
2023-02-28T13:44:02.001Z,3.10
2023-02-28T13:46:28.775Z,2.70
2023-02-28T13:48:55.260Z,2.70
2023-02-28T13:51:41.993Z,2.47
2023-02-28T13:54:18.217Z,2.93
2023-02-28T13:56:58.472Z,2.80
2023-02-28T13:59:36.566Z,2.77
2023-02-28T14:02:30.443Z,3.83
2023-02-28T14:05:27.982Z,2.20
2023-02-28T14:07:58.217Z,3.77
2023-02-28T14:10:28.482Z,3.07
2023-02-28T14:12:57.921Z,2.57
2023-02-28T14:15:40.149Z,2.93
2023-02-28T14:18:15.914Z,3.27
2023-02-28T14:20:43.502Z,2.93
2023-02-28T14:23:26.084Z,2.80
2023-02-28T14:26:04.466Z,2.40
2023-02-28T14:28:42.183Z,3.97
2023-02-28T14:31:12.410Z,2.63
2023-02-28T14:33:50.011Z,2.93
2023-02-28T14:36:23.097Z,2.27
2023-02-28T14:38:56.094Z,2.70
2023-02-28T14:41:37.983Z,3.80
2023-02-28T14:44:17.567Z,3.40
2023-02-28T14:46:44.994Z,2.30
2023-02-28T14:49:47.916Z,2.57
2023-02-28T14:52:23.423Z,2.30
2023-02-28T14:55:01.437Z,2.57
2023-02-28T14:57:33.304Z,3.03
2023-02-28T15:00:14.891Z,4.40
2023-02-28T15:02:42.434Z,2.67
2023-02-28T15:05:17.619Z,3.70
2023-02-28T15:07:48.838Z,2.97
2023-02-28T15:10:21.383Z,3.93
2023-02-28T15:13:03.688Z,3.03
2023-02-28T15:16:02.396Z,4.40
2023-02-28T15:18:49.242Z,3.03
2023-02-28T15:21:22.508Z,2.90
2023-02-28T15:23:56.173Z,3.93
2023-02-28T15:26:26.764Z,3.53
2023-02-28T15:29:06.606Z,3.63
2023-02-28T15:31:55.996Z,3.97
2023-02-28T15:34:37.063Z,3.73
2023-02-28T15:37:44.919Z,4.50
2023-02-28T15:40:18.221Z,5.13
2023-02-28T15:43:08.915Z,3.33
2023-02-28T15:45:47.110Z,4.33
2023-02-28T15:48:22.438Z,4.03
2023-02-28T15:50:52.891Z,3.97
2023-02-28T15:53:24.187Z,2.80
2023-02-28T15:56:01.180Z,5.77
2023-02-28T15:58:27.814Z,4.77
2023-02-28T16:01:06.537Z,3.73
2023-02-28T16:03:40.467Z,3.17
2023-02-28T16:06:36.044Z,4.73
2023-02-28T16:09:03.606Z,4.10
2023-02-28T16:11:31.711Z,5.47
2023-02-28T16:13:58.857Z,5.47
2023-02-28T16:16:26.857Z,5.23
2023-02-28T16:18:53.644Z,5.07
2023-02-28T16:21:20.207Z,3.70
2023-02-28T16:23:46.794Z,4.60
2023-02-28T16:26:21.393Z,2.80
2023-02-28T16:28:48.065Z,3.87
2023-02-28T16:31:17.478Z,4.73
2023-02-28T16:33:45.770Z,4.20
2023-02-28T16:36:21.228Z,3.53
2023-02-28T16:38:47.782Z,4.30
2023-02-28T16:41:26.365Z,2.67
2023-02-28T16:43:55.229Z,5.87
2023-02-28T16:46:21.908Z,4.53
2023-02-28T16:48:52.481Z,3.87
2023-02-28T16:51:19.495Z,3.10
2023-02-28T16:53:46.280Z,4.33
2023-02-28T16:56:21.661Z,4.53
2023-02-28T16:58:48.741Z,6.53
2023-02-28T17:01:15.711Z,3.50
2023-02-28T17:03:43.116Z,3.47
2023-02-28T17:06:24.076Z,4.90
2023-02-28T17:08:51.718Z,3.30
2023-02-28T17:11:18.957Z,4.17
2023-02-28T17:13:46.045Z,3.67
2023-02-28T17:16:36.193Z,4.53
2023-02-28T17:19:05.926Z,3.00
2023-02-28T17:21:34.071Z,4.00
2023-02-28T17:24:01.222Z,5.23
2023-02-28T17:26:29.007Z,5.00
2023-02-28T17:28:59.273Z,5.63
2023-02-28T17:31:27.059Z,5.67
2023-02-28T17:33:55.293Z,5.67
2023-02-28T17:36:25.474Z,4.83
2023-02-28T17:38:52.727Z,4.77
2023-02-28T17:41:19.365Z,5.17
2023-02-28T17:43:45.926Z,4.23
2023-02-28T17:46:23.735Z,4.80
2023-02-28T17:48:53.992Z,5.27
2023-02-28T17:51:22.988Z,4.77
2023-02-28T17:53:50.138Z,5.33
2023-02-28T17:56:22.608Z,6.17
2023-02-28T17:58:49.197Z,5.30
2023-02-28T18:01:15.782Z,7.07
2023-02-28T18:03:42.420Z,5.87
2023-02-28T18:06:15.680Z,8.00
2023-02-28T18:08:42.350Z,8.50
2023-02-28T18:11:18.019Z,10.23
2023-02-28T18:13:46.677Z,10.67
2023-02-28T18:16:13.558Z,12.90
2023-02-28T18:18:40.071Z,13.23
2023-02-28T18:21:08.254Z,12.07
2023-02-28T18:23:35.152Z,14.87
2023-02-28T18:26:01.784Z,17.33
2023-02-28T18:28:28.259Z,17.63
2023-02-28T18:30:54.730Z,14.33
2023-02-28T18:33:21.368Z,12.47
2023-02-28T18:35:56.009Z,10.37
2023-02-28T18:38:22.649Z,9.07
2023-02-28T18:41:03.376Z,9.67
2023-02-28T18:43:31.608Z,9.53
2023-02-28T18:45:58.598Z,8.53
2023-02-28T18:48:25.100Z,9.10
2023-02-28T18:50:52.120Z,10.30
2023-02-28T18:53:19.248Z,10.27
2023-02-28T18:55:45.958Z,12.07
2023-02-28T18:58:12.954Z,11.50
2023-02-28T19:00:39.533Z,11.77
2023-02-28T19:03:06.099Z,11.67
2023-02-28T19:05:34.540Z,11.50
2023-02-28T19:08:02.064Z,10.23
2023-02-28T19:10:28.715Z,10.33
2023-02-28T19:12:55.699Z,11.77
2023-02-28T19:15:22.309Z,11.67
2023-02-28T19:17:49.092Z,9.83
2023-02-28T19:20:15.841Z,9.93
2023-02-28T19:22:42.654Z,8.93
2023-02-28T19:25:09.711Z,11.03
2023-02-28T19:27:36.319Z,9.67
2023-02-28T19:30:04.288Z,8.70
2023-02-28T19:32:30.843Z,11.17
2023-02-28T19:34:57.889Z,12.03
2023-02-28T19:37:24.423Z,11.57
2023-02-28T19:39:50.922Z,14.00
2023-02-28T19:42:18.239Z,16.93
2023-02-28T19:44:45.256Z,13.27
2023-02-28T19:47:12.598Z,15.33
2023-02-28T19:49:39.157Z,13.87
2023-02-28T19:52:05.707Z,16.33
2023-02-28T19:54:32.240Z,13.80
2023-02-28T19:56:58.781Z,11.97
2023-02-28T19:59:36.047Z,11.30
2023-02-28T20:02:05.858Z,13.57
2023-02-28T20:04:32.354Z,14.57
2023-02-28T20:06:58.813Z,14.97
2023-02-28T20:09:25.370Z,12.77
2023-02-28T20:11:52.075Z,13.20
2023-02-28T20:14:18.668Z,12.40
2023-02-28T20:16:46.013Z,12.20
2023-02-28T20:19:13.282Z,9.30
2023-02-28T20:21:41.438Z,9.87
2023-02-28T20:24:08.007Z,10.17
2023-02-28T20:26:35.016Z,9.07
2023-02-28T20:29:01.496Z,10.73
2023-02-28T20:31:28.785Z,8.70
2023-02-28T20:33:55.302Z,8.27
2023-02-28T20:36:23.500Z,7.40
2023-02-28T20:38:51.707Z,8.13
2023-02-28T20:41:18.831Z,7.90
2023-02-28T20:43:45.843Z,9.40
2023-02-28T20:46:12.576Z,11.60
2023-02-28T20:48:39.710Z,14.17
2023-02-28T20:51:06.913Z,11.40
2023-02-28T20:53:34.543Z,14.43
2023-02-28T20:56:06.615Z,13.93
2023-02-28T20:58:37.023Z,16.87
2023-02-28T21:01:17.781Z,16.70
2023-02-28T21:03:49.941Z,14.37
2023-02-28T21:06:19.087Z,11.93
2023-02-28T21:08:45.781Z,10.53
2023-02-28T21:11:17.842Z,11.50
2023-02-28T21:13:45.218Z,9.70
2023-02-28T21:16:14.144Z,12.23
2023-02-28T21:18:41.160Z,9.73
2023-02-28T21:21:11.050Z,11.30
2023-02-28T21:23:38.142Z,10.17
2023-02-28T21:26:06.485Z,8.73
2023-02-28T21:28:33.569Z,9.60
2023-02-28T21:31:08.268Z,12.00
2023-02-28T21:33:35.389Z,9.60
2023-02-28T21:36:11.087Z,10.57
2023-02-28T21:38:38.360Z,11.37
2023-02-28T21:41:12.772Z,7.93
2023-02-28T21:43:39.749Z,8.60
2023-02-28T21:46:08.651Z,9.60
2023-02-28T21:48:35.678Z,8.77
2023-02-28T21:51:07.698Z,7.43
2023-02-28T21:53:36.665Z,6.73
2023-02-28T21:56:05.096Z,6.50
2023-02-28T21:58:31.552Z,7.07
2023-02-28T22:01:05.333Z,6.17
2023-02-28T22:03:32.050Z,6.00
2023-02-28T22:05:58.556Z,6.87
2023-02-28T22:08:25.029Z,5.23
2023-02-28T22:10:51.627Z,5.30
2023-02-28T22:13:18.033Z,4.53
2023-02-28T22:15:44.448Z,6.17
2023-02-28T22:18:11.492Z,5.83
2023-02-28T22:20:37.900Z,4.90
2023-02-28T22:23:04.364Z,6.07
2023-02-28T22:25:30.794Z,4.87
2023-02-28T22:27:57.281Z,5.07
2023-02-28T22:30:23.696Z,4.07
2023-02-28T22:32:50.116Z,4.83
2023-02-28T22:35:19.389Z,4.73
2023-02-28T22:37:47.942Z,3.93
2023-02-28T22:40:14.392Z,5.77
2023-02-28T22:42:40.804Z,5.83
2023-02-28T22:45:07.774Z,7.33
2023-02-28T22:47:34.224Z,4.73
2023-02-28T22:50:00.655Z,4.83
2023-02-28T22:52:28.160Z,6.07
2023-02-28T22:54:54.625Z,4.07
2023-02-28T22:57:21.085Z,4.07
2023-02-28T22:59:47.712Z,6.40
2023-02-28T23:02:14.134Z,5.93
2023-02-28T23:04:40.756Z,5.03
2023-02-28T23:07:07.192Z,4.93
2023-02-28T23:09:33.602Z,5.97
2023-02-28T23:12:00.014Z,5.93
2023-02-28T23:14:26.466Z,7.27
2023-02-28T23:16:54.153Z,5.43
2023-02-28T23:19:26.458Z,10.17
2023-02-28T23:21:53.450Z,7.80
2023-02-28T23:24:21.658Z,9.07
2023-02-28T23:26:50.331Z,6.60
2023-02-28T23:29:18.848Z,6.77
2023-02-28T23:31:45.430Z,5.57
2023-02-28T23:34:12.307Z,6.10
2023-02-28T23:36:43.411Z,6.53
2023-02-28T23:39:09.837Z,6.07
2023-02-28T23:41:36.262Z,6.27
2023-02-28T23:44:02.664Z,7.77
2023-02-28T23:46:29.415Z,7.77
2023-02-28T23:48:56.097Z,6.23
2023-02-28T23:51:22.841Z,6.30
2023-02-28T23:53:51.581Z,5.17
2023-02-28T23:56:20.676Z,4.63
2023-02-28T23:58:47.684Z,6.80
